Time;durP1;ratioP1;P1;durP2;ratioP2;P2;SDS_P1;SDS_P2;PMS_P1;PMS_P2;Temp;Humidity;BMP_temperature;BMP_pressure;BME280_temperature;BME280_humidity;BME280_pressure;Samples;Min_cycle;Max_cycle;Signal;HPM_P1;HPM_P2
2023/01/31 00:02:41;;;;;;;24.83;18.88;;;;;;;;;;10332742;28;20098;-70
2023/01/31 00:07:39;;;;;;;20.88;16.38;;;;;;;;;;10335118;28;20501;-70
2023/01/31 00:12:37;;;;;;;27.38;18.67;;;;;;;;;;10314369;28;20076;-70
2023/01/31 00:17:36;;;;;;;22.58;17.17;;;;;;;;;;10333385;28;20087;-70
2023/01/31 00:22:35;;;;;;;24.58;16.92;;;;;;;;;;10333259;28;20071;-70
2023/01/31 00:27:34;;;;;;;22.20;17.63;;;;;;;;;;10330268;28;20064;-69
2023/01/31 00:32:32;;;;;;;21.25;16.75;;;;;;;;;;10332917;28;20517;-70
2023/01/31 00:37:31;;;;;;;24.70;18.10;;;;;;;;;;10329422;28;20067;-70
2023/01/31 00:42:31;;;;;;;26.30;18.10;;;;;;;;;;10326716;28;20083;-70
2023/01/31 00:47:29;;;;;;;22.27;16.05;;;;;;;;;;10334341;28;20098;-70
2023/01/31 00:52:27;;;;;;;23.05;16.67;;;;;;;;;;10332197;28;20076;-70
2023/01/31 00:57:27;;;;;;;137.25;50.92;;;;;;;;;;10315309;28;20539;-70
2023/01/31 01:02:26;;;;;;;26.33;17.58;;;;;;;;;;10331971;28;20102;-70
2023/01/31 01:07:24;;;;;;;27.92;17.70;;;;;;;;;;10331715;28;20048;-70
2023/01/31 01:12:23;;;;;;;61.50;35.55;;;;;;;;;;10312347;28;20516;-70
2023/01/31 01:17:21;;;;;;;26.15;17.70;;;;;;;;;;10331043;28;20080;-70
2023/01/31 01:22:21;;;;;;;73.25;36.80;;;;;;;;;;10319658;28;20532;-70
2023/01/31 01:27:19;;;;;;;126.82;59.35;;;;;;;;;;10310858;28;20044;-70
2023/01/31 01:32:17;;;;;;;54.55;29.42;;;;;;;;;;10325968;28;20053;-70
2023/01/31 01:37:18;;;;;;;86.53;42.78;;;;;;;;;;10329379;28;20060;-70
2023/01/31 01:42:19;;;;;;;31.33;20.15;;;;;;;;;;10312964;28;20083;-70
2023/01/31 01:47:23;;;;;;;75.07;37.83;;;;;;;;;;10333350;28;20079;-70
2023/01/31 01:52:21;;;;;;;65.10;33.70;;;;;;;;;;10329429;28;20053;-71
2023/01/31 01:57:24;;;;;;;60.00;32.83;;;;;;;;;;10340630;28;20070;-70
2023/01/31 02:02:22;;;;;;;60.83;31.33;;;;;;;;;;10321613;28;20102;-71
2023/01/31 02:07:20;;;;;;;38.42;24.25;;;;;;;;;;10340781;28;20067;-70
2023/01/31 02:12:18;;;;;;;72.68;42.28;;;;;;;;;;10325495;28;20466;-71
2023/01/31 02:17:19;;;;;;;39.90;28.13;;;;;;;;;;10343848;28;20072;-71
2023/01/31 02:22:20;;;;;;;74.20;44.28;;;;;;;;;;10318556;28;20536;-71
2023/01/31 02:27:27;;;;;;;35.75;25.23;;;;;;;;;;10335391;28;20072;-71
2023/01/31 02:32:41;;;;;;;68.78;44.58;;;;;;;;;;10340901;28;20091;-71
2023/01/31 02:37:44;;;;;;;55.95;35.50;;;;;;;;;;10319937;28;20079;-71
2023/01/31 02:42:47;;;;;;;47.63;27.80;;;;;;;;;;10326145;28;20079;-71
2023/01/31 02:47:51;;;;;;;37.55;25.48;;;;;;;;;;10321324;28;20044;-71
2023/01/31 02:52:52;;;;;;;32.60;21.80;;;;;;;;;;10337717;28;20048;-69
2023/01/31 02:57:51;;;;;;;37.38;24.38;;;;;;;;;;10338410;28;20067;-70
2023/01/31 03:02:51;;;;;;;29.20;20.77;;;;;;;;;;10320055;28;20079;-70
2023/01/31 03:07:52;;;;;;;25.48;18.40;;;;;;;;;;10317333;28;20041;-70
2023/01/31 03:12:57;;;;;;;26.08;18.95;;;;;;;;;;10335948;28;20094;-70
2023/01/31 03:18:00;;;;;;;27.90;19.40;;;;;;;;;;10336448;28;20072;-70
2023/01/31 03:23:01;;;;;;;27.48;18.42;;;;;;;;;;10318339;28;20068;-70
2023/01/31 03:28:01;;;;;;;24.98;18.60;;;;;;;;;;10334981;28;20103;-70
2023/01/31 03:33:05;;;;;;;28.02;19.35;;;;;;;;;;10317745;28;20079;-69
2023/01/31 03:38:05;;;;;;;28.35;19.33;;;;;;;;;;10334867;28;20055;-70
2023/01/31 03:43:09;;;;;;;24.75;19.38;;;;;;;;;;10315137;28;20080;-69
2023/01/31 03:48:13;;;;;;;23.50;18.90;;;;;;;;;;10336239;28;20097;-70
2023/01/31 03:53:15;;;;;;;29.05;20.98;;;;;;;;;;10321547;28;20075;-70
2023/01/31 03:58:15;;;;;;;37.35;25.60;;;;;;;;;;10316982;28;20084;-70
2023/01/31 04:03:17;;;;;;;39.90;26.50;;;;;;;;;;10316611;28;20076;-69
2023/01/31 04:08:18;;;;;;;35.08;23.23;;;;;;;;;;10315992;28;20083;-70
2023/01/31 04:13:23;;;;;;;28.27;18.83;;;;;;;;;;10333865;28;20076;-70
2023/01/31 04:18:23;;;;;;;29.35;20.00;;;;;;;;;;10332692;28;20071;-70
2023/01/31 04:23:23;;;;;;;31.88;22.00;;;;;;;;;;10335205;28;20067;-70
2023/01/31 04:28:22;;;;;;;24.13;18.52;;;;;;;;;;10333790;28;20068;-70
2023/01/31 04:33:20;;;;;;;32.10;22.65;;;;;;;;;;10332536;28;20499;-69
2023/01/31 04:38:19;;;;;;;29.08;20.17;;;;;;;;;;10335932;28;20068;-70
2023/01/31 04:43:18;;;;;;;32.40;20.95;;;;;;;;;;10335151;28;20068;-69
2023/01/31 04:48:16;;;;;;;27.98;20.38;;;;;;;;;;10335086;28;20079;-70
2023/01/31 04:53:14;;;;;;;25.88;19.15;;;;;;;;;;10332176;28;20072;-69
2023/01/31 04:58:14;;;;;;;44.97;27.88;;;;;;;;;;10329468;28;20499;-69
2023/01/31 05:03:12;;;;;;;36.92;24.75;;;;;;;;;;10334683;28;20073;-69
2023/01/31 05:08:10;;;;;;;29.00;20.70;;;;;;;;;;10334346;28;20084;-70
2023/01/31 05:13:08;;;;;;;28.55;21.60;;;;;;;;;;10332557;28;20063;-70
2023/01/31 05:18:08;;;;;;;30.83;21.20;;;;;;;;;;10332890;28;20071;-70
2023/01/31 05:23:06;;;;;;;33.40;23.55;;;;;;;;;;10332568;28;20068;-69
2023/01/31 05:28:04;;;;;;;45.97;28.88;;;;;;;;;;10343074;28;20063;-69
2023/01/31 05:33:03;;;;;;;33.40;24.00;;;;;;;;;;10338709;28;20516;-69
2023/01/31 05:38:02;;;;;;;30.90;19.67;;;;;;;;;;10332971;28;20056;-69
2023/01/31 05:43:01;;;;;;;27.65;18.63;;;;;;;;;;10329280;28;20501;-69
2023/01/31 05:47:59;;;;;;;27.30;19.20;;;;;;;;;;10336651;28;20079;-69
2023/01/31 05:52:59;;;;;;;26.73;19.27;;;;;;;;;;10332951;28;20522;-69
2023/01/31 05:57:59;;;;;;;31.55;23.60;;;;;;;;;;10335224;28;20064;-70
2023/01/31 06:02:58;;;;;;;33.63;25.40;;;;;;;;;;10332265;28;20070;-69
2023/01/31 06:07:57;;;;;;;30.27;21.65;;;;;;;;;;10329355;28;20076;-68
2023/01/31 06:12:56;;;;;;;26.17;19.15;;;;;;;;;;10309519;28;20078;-68
2023/01/31 06:17:55;;;;;;;26.17;18.13;;;;;;;;;;10332979;28;20067;-68
2023/01/31 06:22:53;;;;;;;25.50;18.48;;;;;;;;;;10328057;28;20521;-69
2023/01/31 06:27:52;;;;;;;33.65;24.15;;;;;;;;;;10330501;28;20071;-69
2023/01/31 06:32:50;;;;;;;26.20;19.73;;;;;;;;;;10329332;28;20080;-68
2023/01/31 06:37:49;;;;;;;56.22;33.22;;;;;;;;;;10328184;28;20072;-69
2023/01/31 06:42:47;;;;;;;29.90;22.33;;;;;;;;;;10312482;28;20500;-70
2023/01/31 06:47:46;;;;;;;26.25;18.58;;;;;;;;;;10332335;28;20072;-70
2023/01/31 06:52:44;;;;;;;24.15;17.58;;;;;;;;;;10343791;28;20464;-69
2023/01/31 06:57:47;;;;;;;26.65;19.05;;;;;;;;;;10336809;28;20529;-69
2023/01/31 07:02:45;;;;;;;31.42;20.88;;;;;;;;;;10337977;28;20033;-70
2023/01/31 07:07:44;;;;;;;23.80;19.65;;;;;;;;;;10334510;28;20453;-70
2023/01/31 07:12:42;;;;;;;27.40;19.42;;;;;;;;;;10348594;28;20135;-70
2023/01/31 07:17:42;;;;;;;46.53;31.67;;;;;;;;;;10345129;28;20064;-70
2023/01/31 07:22:41;;;;;;;82.20;47.92;;;;;;;;;;10331962;28;20076;-70
2023/01/31 07:27:39;;;;;;;66.18;39.10;;;;;;;;;;10340618;28;20068;-70
2023/01/31 07:32:38;;;;;;;66.15;47.05;;;;;;;;;;10340832;28;20079;-69
2023/01/31 07:37:38;;;;;;;56.00;40.17;;;;;;;;;;10345614;28;20071;-69
2023/01/31 08:05:26;;;;;;;26.33;21.95;;;;;;;;;;10325973;28;20085;-69
2023/01/31 08:10:25;;;;;;;43.72;31.35;;;;;;;;;;10332971;28;20075;-69
2023/01/31 08:15:24;;;;;;;29.42;21.65;;;;;;;;;;10332975;28;20066;-69
2023/01/31 08:20:23;;;;;;;41.00;24.75;;;;;;;;;;10331811;28;20461;-69
2023/01/31 08:25:21;;;;;;;34.45;24.48;;;;;;;;;;10329391;28;20532;-69
2023/01/31 08:30:20;;;;;;;110.90;40.67;;;;;;;;;;10330965;28;20070;-69
2023/01/31 08:35:20;;;;;;;61.78;32.63;;;;;;;;;;10290538;28;20502;-70
2023/01/31 08:40:19;;;;;;;41.50;29.60;;;;;;;;;;10290666;28;20076;-70
2023/01/31 08:45:17;;;;;;;48.42;32.95;;;;;;;;;;10288630;28;20119;-69
2023/01/31 08:50:16;;;;;;;56.42;36.88;;;;;;;;;;10287461;28;20099;-70
2023/01/31 08:55:26;;;;;;;71.72;46.10;;;;;;;;;;10288280;28;20079;-69
2023/01/31 09:00:24;;;;;;;51.78;32.15;;;;;;;;;;10286580;28;20060;-70
2023/01/31 09:05:23;;;;;;;41.00;28.77;;;;;;;;;;10285813;28;20095;-69
2023/01/31 09:10:23;;;;;;;36.22;27.27;;;;;;;;;;10286116;28;20079;-70
2023/01/31 09:15:23;;;;;;;35.42;25.10;;;;;;;;;;10281887;28;20061;-70
2023/01/31 09:20:21;;;;;;;34.30;23.35;;;;;;;;;;10282866;28;20064;-71
2023/01/31 09:25:19;;;;;;;43.22;31.52;;;;;;;;;;10289516;28;20076;-70
2023/01/31 09:30:35;;;;;;;43.37;29.93;;;;;;;;;;10291214;28;20063;-70
2023/01/31 09:35:36;;;;;;;40.20;29.10;;;;;;;;;;10330265;28;20075;-70
2023/01/31 09:40:35;;;;;;;38.60;27.50;;;;;;;;;;10329925;28;20552;-69
2023/01/31 09:45:35;;;;;;;39.92;29.92;;;;;;;;;;10330728;28;20473;-70
2023/01/31 09:50:36;;;;;;;44.50;31.95;;;;;;;;;;10329958;28;20490;-69
2023/01/31 09:55:38;;;;;;;68.90;40.60;;;;;;;;;;10311355;28;20076;-69
2023/01/31 10:00:39;;;;;;;58.22;33.13;;;;;;;;;;10330770;28;20953;-70
2023/01/31 10:05:43;;;;;;;41.22;25.92;;;;;;;;;;10330694;28;20101;-70
2023/01/31 10:10:45;;;;;;;39.17;29.05;;;;;;;;;;10328680;28;20064;-70
2023/01/31 10:15:48;;;;;;;41.10;29.55;;;;;;;;;;10348802;28;20086;-70
2023/01/31 10:20:49;;;;;;;36.53;24.63;;;;;;;;;;10337032;28;20075;-70
2023/01/31 10:25:50;;;;;;;32.30;23.42;;;;;;;;;;10341150;28;20063;-70
2023/01/31 10:30:51;;;;;;;34.05;20.25;;;;;;;;;;10354473;28;20087;-69
2023/01/31 10:35:52;;;;;;;29.02;22.42;;;;;;;;;;10341272;28;20482;-70
2023/01/31 10:40:53;;;;;;;53.92;26.10;;;;;;;;;;10354245;28;20063;-69
2023/01/31 10:45:51;;;;;;;35.33;25.48;;;;;;;;;;10335034;28;20075;-70
2023/01/31 10:50:56;;;;;;;33.08;23.55;;;;;;;;;;10333528;28;20068;-70
2023/01/31 10:55:59;;;;;;;30.75;22.58;;;;;;;;;;10331898;28;20060;-70
2023/01/31 11:00:57;;;;;;;34.83;24.92;;;;;;;;;;10336631;28;20083;-70
2023/01/31 11:05:57;;;;;;;33.05;24.27;;;;;;;;;;10351593;28;20048;-68
2023/01/31 11:10:56;;;;;;;27.65;21.15;;;;;;;;;;10334895;28;20459;-65
2023/01/31 11:15:55;;;;;;;34.40;22.40;;;;;;;;;;10334352;28;20064;-70
2023/01/31 11:20:53;;;;;;;48.67;28.02;;;;;;;;;;10336770;28;20064;-69
2023/01/31 11:25:53;;;;;;;49.03;30.65;;;;;;;;;;10334770;28;20068;-70
2023/01/31 11:30:53;;;;;;;52.63;32.25;;;;;;;;;;10328723;28;20084;-70
2023/01/31 11:35:51;;;;;;;35.03;24.42;;;;;;;;;;10334646;28;20060;-70
2023/01/31 11:40:50;;;;;;;37.45;23.48;;;;;;;;;;10336111;28;20075;-70
2023/01/31 11:45:54;;;;;;;26.60;19.02;;;;;;;;;;10335756;28;20166;-70
2023/01/31 11:50:54;;;;;;;24.77;18.00;;;;;;;;;;10335941;28;20068;-69
2023/01/31 11:55:54;;;;;;;35.13;26.27;;;;;;;;;;10334698;28;20060;-70
2023/01/31 12:00:55;;;;;;;27.13;21.10;;;;;;;;;;10333063;28;20071;-68
2023/01/31 12:05:59;;;;;;;24.33;18.95;;;;;;;;;;10333315;28;20103;-69
2023/01/31 12:10:58;;;;;;;34.58;25.52;;;;;;;;;;10335962;28;20060;-69
2023/01/31 12:16:01;;;;;;;34.70;20.50;;;;;;;;;;10311087;28;20083;-70
2023/01/31 12:21:03;;;;;;;69.95;40.80;;;;;;;;;;10327426;28;20071;-70
2023/01/31 12:26:06;;;;;;;33.88;26.00;;;;;;;;;;10330828;28;20075;-70
2023/01/31 12:31:16;;;;;;;33.35;23.98;;;;;;;;;;10324994;28;20084;-70
2023/01/31 12:36:22;;;;;;;30.55;20.17;;;;;;;;;;10289992;28;20107;-70
2023/01/31 12:41:25;;;;;;;105.35;70.72;;;;;;;;;;10286853;28;20067;-68
2023/01/31 12:46:29;;;;;;;44.00;28.17;;;;;;;;;;10285112;28;20080;-69
2023/01/31 12:51:38;;;;;;;40.72;26.25;;;;;;;;;;10284261;28;20060;-69
2023/01/31 12:56:41;;;;;;;34.58;26.13;;;;;;;;;;10291373;28;20071;-69
2023/01/31 13:01:44;;;;;;;35.10;20.85;;;;;;;;;;10289886;28;20083;-69
2023/01/31 13:06:43;;;;;;;21.48;15.60;;;;;;;;;;10303467;28;20072;-70
2023/01/31 13:11:44;;;;;;;17.08;14.05;;;;;;;;;;10331572;28;20068;-68
2023/01/31 13:16:44;;;;;;;25.42;18.60;;;;;;;;;;10331678;28;20059;-68
2023/01/31 13:21:44;;;;;;;26.98;18.33;;;;;;;;;;10331557;28;20694;-70
2023/01/31 13:26:44;;;;;;;84.97;50.38;;;;;;;;;;10336953;28;20090;-69
2023/01/31 13:31:45;;;;;;;112.97;67.95;;;;;;;;;;10342422;28;20079;-68
2023/01/31 13:36:45;;;;;;;38.42;28.15;;;;;;;;;;10326355;28;20067;-68
2023/01/31 13:41:43;;;;;;;48.60;31.77;;;;;;;;;;10327862;28;20094;-69
2023/01/31 13:46:45;;;;;;;34.08;23.08;;;;;;;;;;10317162;28;20080;-69
2023/01/31 13:51:46;;;;;;;53.13;31.23;;;;;;;;;;10327993;28;20490;-69
2023/01/31 13:56:47;;;;;;;73.32;40.53;;;;;;;;;;10335744;28;20075;-69
2023/01/31 14:01:48;;;;;;;36.60;23.70;;;;;;;;;;10334763;28;20063;-69
2023/01/31 14:07:13;;;;;;;56.03;37.25;;;;;;;;;;10329465;28;20079;-69
2023/01/31 14:12:35;;;;;;;41.97;26.42;;;;;;;;;;10293954;28;20068;-69
2023/01/31 14:17:53;;;;;;;55.30;34.17;;;;;;;;;;10314956;28;20083;-69
2023/01/31 14:23:06;;;;;;;51.85;33.13;;;;;;;;;;10327656;28;20123;-70
2023/01/31 14:28:10;;;;;;;48.33;34.50;;;;;;;;;;10311777;28;20087;-68
2023/01/31 14:33:23;;;;;;;53.67;36.58;;;;;;;;;;10319300;28;20083;-71
2023/01/31 14:38:24;;;;;;;36.17;27.63;;;;;;;;;;10326926;28;20084;-65
2023/01/31 14:43:31;;;;;;;34.03;24.70;;;;;;;;;;10328834;28;20075;-66
2023/01/31 14:48:46;;;;;;;38.65;28.88;;;;;;;;;;10324201;28;20064;-65
2023/01/31 14:54:08;;;;;;;57.33;34.13;;;;;;;;;;10329291;28;20075;-65
2023/01/31 14:59:21;;;;;;;106.32;63.53;;;;;;;;;;10343551;28;20090;-65
2023/01/31 15:04:21;;;;;;;63.15;46.70;;;;;;;;;;10325715;28;20064;-64
2023/01/31 15:09:27;;;;;;;112.35;69.15;;;;;;;;;;10318840;28;20493;-65
2023/01/31 15:14:32;;;;;;;277.13;175.43;;;;;;;;;;10319570;28;20106;-66
2023/01/31 15:19:36;;;;;;;125.15;84.80;;;;;;;;;;10317449;28;20068;-66
2023/01/31 15:24:35;;;;;;;302.90;197.00;;;;;;;;;;10318201;28;20471;-66
2023/01/31 15:29:44;;;;;;;772.58;469.30;;;;;;;;;;10331311;28;20067;-67
2023/01/31 15:34:47;;;;;;;418.40;233.52;;;;;;;;;;10327405;28;20067;-66
2023/01/31 15:39:51;;;;;;;256.30;149.00;;;;;;;;;;10322676;28;20604;-66
2023/01/31 15:44:50;;;;;;;128.97;84.07;;;;;;;;;;10332077;28;20071;-65
2023/01/31 15:49:49;;;;;;;149.88;96.57;;;;;;;;;;10329710;28;20095;-65
2023/01/31 15:54:51;;;;;;;134.25;94.88;;;;;;;;;;10345443;28;20072;-66
2023/01/31 15:59:50;;;;;;;98.78;70.30;;;;;;;;;;10337872;28;20140;-66
2023/01/31 16:04:49;;;;;;;91.40;61.63;;;;;;;;;;10332971;28;20068;-66
2023/01/31 16:09:47;;;;;;;81.38;57.95;;;;;;;;;;10340415;28;20071;-66
2023/01/31 16:14:47;;;;;;;132.43;92.32;;;;;;;;;;10343394;28;20088;-64
2023/01/31 16:19:49;;;;;;;94.90;62.60;;;;;;;;;;10336148;28;20415;-66
2023/01/31 16:24:52;;;;;;;97.72;65.15;;;;;;;;;;10327277;28;20075;-65
2023/01/31 16:29:51;;;;;;;118.63;88.35;;;;;;;;;;10332325;28;20512;-66
2023/01/31 16:34:55;;;;;;;282.80;160.40;;;;;;;;;;10333800;28;20084;-65
2023/01/31 16:39:59;;;;;;;274.38;155.30;;;;;;;;;;10330332;28;20214;-66
2023/01/31 16:44:57;;;;;;;156.82;86.18;;;;;;;;;;10335742;28;20483;-66
2023/01/31 16:50:19;;;;;;;70.38;44.53;;;;;;;;;;10335840;28;20094;-66
2023/01/31 16:55:26;;;;;;;127.40;77.53;;;;;;;;;;10333448;28;20064;-66
2023/01/31 17:00:34;;;;;;;112.55;69.32;;;;;;;;;;10335140;28;20080;-65
2023/01/31 17:05:39;;;;;;;351.48;160.80;;;;;;;;;;10334254;28;20072;-66
2023/01/31 17:10:39;;;;;;;181.33;101.83;;;;;;;;;;10331131;28;20103;-65
2023/01/31 17:15:40;;;;;;;178.35;100.72;;;;;;;;;;10345397;28;20060;-65
2023/01/31 17:20:41;;;;;;;125.13;80.75;;;;;;;;;;10340149;28;20083;-65
2023/01/31 17:25:41;;;;;;;139.70;89.25;;;;;;;;;;10339720;28;20086;-65
2023/01/31 17:30:40;;;;;;;135.38;78.30;;;;;;;;;;10331411;28;20501;-64
2023/01/31 17:35:39;;;;;;;384.88;198.43;;;;;;;;;;10336534;28;20071;-66
2023/01/31 17:40:39;;;;;;;43.63;33.58;;;;;;;;;;10332580;28;20064;-64
2023/01/31 17:45:39;;;;;;;98.50;67.35;;;;;;;;;;10330248;28;20068;-65
2023/01/31 17:50:37;;;;;;;41.80;33.08;;;;;;;;;;10326950;28;20537;-65
2023/01/31 17:55:35;;;;;;;54.85;43.33;;;;;;;;;;10331041;28;20067;-64
2023/01/31 18:00:36;;;;;;;58.25;36.05;;;;;;;;;;10333763;28;20102;-66
2023/01/31 18:05:39;;;;;;;61.28;35.60;;;;;;;;;;10328290;28;20506;-66
2023/01/31 18:10:38;;;;;;;63.90;43.25;;;;;;;;;;10331841;28;20098;-66
2023/01/31 18:15:38;;;;;;;115.75;62.63;;;;;;;;;;10323822;28;20072;-65
2023/01/31 18:20:38;;;;;;;48.97;35.05;;;;;;;;;;10333274;28;20076;-65
2023/01/31 18:25:39;;;;;;;48.97;33.70;;;;;;;;;;10330437;28;20072;-65
2023/01/31 18:30:39;;;;;;;49.58;36.83;;;;;;;;;;10330640;28;20833;-66
2023/01/31 18:35:37;;;;;;;35.72;26.42;;;;;;;;;;10332189;28;20060;-65
2023/01/31 18:40:35;;;;;;;47.80;32.85;;;;;;;;;;10340108;28;20068;-65
2023/01/31 18:45:33;;;;;;;32.25;24.35;;;;;;;;;;10338878;28;20083;-65
2023/01/31 18:50:33;;;;;;;28.98;21.13;;;;;;;;;;10338064;28;20085;-65
2023/01/31 18:55:32;;;;;;;28.27;21.30;;;;;;;;;;10334909;28;20466;-66
2023/01/31 19:00:30;;;;;;;41.67;30.08;;;;;;;;;;10338662;28;20465;-66
2023/01/31 19:05:33;;;;;;;32.97;25.40;;;;;;;;;;10335993;28;20523;-66
2023/01/31 19:10:31;;;;;;;36.28;26.80;;;;;;;;;;10336817;28;20076;-66
2023/01/31 19:15:29;;;;;;;28.85;20.13;;;;;;;;;;10341269;28;20075;-65
2023/01/31 19:20:27;;;;;;;34.60;25.27;;;;;;;;;;10342734;28;20532;-66
2023/01/31 19:25:27;;;;;;;27.90;20.08;;;;;;;;;;10340261;28;20071;-66
2023/01/31 19:30:25;;;;;;;35.20;26.13;;;;;;;;;;10344244;28;20501;-65
2023/01/31 19:35:23;;;;;;;27.08;21.15;;;;;;;;;;10348125;28;20106;-65
2023/01/31 19:40:21;;;;;;;30.25;23.42;;;;;;;;;;10333147;28;20071;-66
2023/01/31 19:45:21;;;;;;;38.22;27.95;;;;;;;;;;10342034;28;20071;-65
2023/01/31 19:50:20;;;;;;;51.72;36.85;;;;;;;;;;10334411;28;20079;-66
2023/01/31 19:55:18;;;;;;;37.15;27.33;;;;;;;;;;10338635;28;20075;-66
2023/01/31 20:00:17;;;;;;;40.30;29.70;;;;;;;;;;10334054;28;20473;-66
2023/01/31 20:05:17;;;;;;;75.53;49.05;;;;;;;;;;10342118;28;20467;-66
2023/01/31 20:10:15;;;;;;;49.60;34.38;;;;;;;;;;10342603;28;20087;-65
2023/01/31 20:15:13;;;;;;;20.48;15.57;;;;;;;;;;10341625;28;20501;-66
2023/01/31 20:20:12;;;;;;;39.08;30.33;;;;;;;;;;10333822;28;20067;-66
2023/01/31 20:25:11;;;;;;;29.50;21.38;;;;;;;;;;10335244;28;20524;-65
2023/01/31 20:30:10;;;;;;;30.13;21.05;;;;;;;;;;10333925;28;20068;-66
2023/01/31 20:35:09;;;;;;;21.65;14.48;;;;;;;;;;10335959;28;20076;-65
2023/01/31 20:40:08;;;;;;;20.88;14.90;;;;;;;;;;10329609;28;20573;-65
2023/01/31 20:45:08;;;;;;;18.02;14.25;;;;;;;;;;10331150;28;20088;-65
2023/01/31 20:50:09;;;;;;;22.10;16.00;;;;;;;;;;10333805;28;20075;-66
2023/01/31 20:55:08;;;;;;;91.75;42.60;;;;;;;;;;10338069;28;20071;-66
2023/01/31 21:00:09;;;;;;;33.53;21.88;;;;;;;;;;10335414;28;20068;-65
2023/01/31 21:05:08;;;;;;;92.95;45.25;;;;;;;;;;10341510;28;20083;-65
2023/01/31 21:10:07;;;;;;;235.35;110.88;;;;;;;;;;10327580;28;20091;-65
2023/01/31 21:15:05;;;;;;;88.00;48.92;;;;;;;;;;10333961;28;20076;-66
2023/01/31 21:20:06;;;;;;;75.75;39.22;;;;;;;;;;10334996;28;20079;-66
2023/01/31 21:25:05;;;;;;;291.80;147.52;;;;;;;;;;10333488;28;20084;-65
2023/01/31 21:30:03;;;;;;;104.10;53.85;;;;;;;;;;10334117;28;20453;-65
2023/01/31 21:35:01;;;;;;;40.67;24.85;;;;;;;;;;10334875;28;20090;-65
2023/01/31 21:40:02;;;;;;;436.73;230.57;;;;;;;;;;10334797;28;20075;-65
2023/01/31 21:45:00;;;;;;;309.40;157.13;;;;;;;;;;10337886;28;20629;-66
2023/01/31 21:49:59;;;;;;;305.38;139.68;;;;;;;;;;10320519;28;20075;-65
2023/01/31 21:54:57;;;;;;;163.55;83.95;;;;;;;;;;10323080;28;20072;-65
2023/01/31 21:59:57;;;;;;;87.93;49.20;;;;;;;;;;10325816;28;20060;-65
2023/01/31 22:04:55;;;;;;;199.98;94.07;;;;;;;;;;10324497;28;20072;-65
2023/01/31 22:09:53;;;;;;;323.40;151.60;;;;;;;;;;10331789;28;20079;-65
2023/01/31 22:14:51;;;;;;;129.15;73.72;;;;;;;;;;10339133;28;20102;-65
2023/01/31 22:19:51;;;;;;;51.72;37.72;;;;;;;;;;10336712;28;20056;-65
2023/01/31 22:24:49;;;;;;;78.70;41.15;;;;;;;;;;10338608;28;20508;-65
2023/01/31 22:29:47;;;;;;;31.70;21.63;;;;;;;;;;10336442;28;20060;-66
2023/01/31 22:34:45;;;;;;;30.85;22.42;;;;;;;;;;10336702;28;20500;-65
2023/01/31 22:39:45;;;;;;;29.55;21.20;;;;;;;;;;10342838;28;20480;-65
2023/01/31 22:44:43;;;;;;;23.45;17.38;;;;;;;;;;10333791;28;20063;-65
2023/01/31 22:49:42;;;;;;;17.77;14.70;;;;;;;;;;10336241;28;20509;-65
2023/01/31 22:54:40;;;;;;;20.52;15.32;;;;;;;;;;10336454;28;20473;-66
2023/01/31 22:59:40;;;;;;;19.23;15.05;;;;;;;;;;10336640;28;20079;-65
2023/01/31 23:04:38;;;;;;;16.00;13.75;;;;;;;;;;10336060;28;20075;-65
2023/01/31 23:09:36;;;;;;;16.15;13.05;;;;;;;;;;10353839;28;20080;-65
2023/01/31 23:14:35;;;;;;;19.13;15.20;;;;;;;;;;10334916;28;20083;-66
2023/01/31 23:19:36;;;;;;;16.05;12.65;;;;;;;;;;10336793;28;20523;-65
2023/01/31 23:24:34;;;;;;;13.95;12.45;;;;;;;;;;10330480;28;20072;-65
2023/01/31 23:29:33;;;;;;;15.93;13.20;;;;;;;;;;10331794;28;20458;-66
2023/01/31 23:34:31;;;;;;;14.95;13.25;;;;;;;;;;10335309;28;20080;-66
2023/01/31 23:39:30;;;;;;;15.57;12.15;;;;;;;;;;10335629;28;20473;-65
2023/01/31 23:44:29;;;;;;;11.80;10.52;;;;;;;;;;10335055;28;20482;-65
2023/01/31 23:49:27;;;;;;;15.40;13.10;;;;;;;;;;10335316;28;20067;-66
2023/01/31 23:54:25;;;;;;;12.32;10.93;;;;;;;;;;10334436;28;20117;-66
2023/01/31 23:59:25;;;;;;;13.43;11.68;;;;;;;;;;10333360;28;20071;-65
